Time;durP1;ratioP1;P1;durP2;ratioP2;P2;SDS_P1;SDS_P2;PMS_P1;PMS_P2;Temp;Humidity;BMP_temperature;BMP_pressure;BME280_temperature;BME280_humidity;BME280_pressure;Samples;Min_cycle;Max_cycle;Signal;HPM_P1;HPM_P2
2021/07/19 00:01:25;;;;;;;;;0.00;0.00;;;;;29.16;90.89;101531.47;5040675;28;45371;-64
2021/07/19 00:03:50;;;;;;;;;0.00;0.00;;;;;28.95;91.75;101526.44;5040516;28;45308;-64
2021/07/19 00:06:16;;;;;;;;;0.00;0.00;;;;;28.84;91.08;101525.31;5022256;28;47168;-64
2021/07/19 00:08:41;;;;;;;;;0.00;0.00;;;;;28.80;91.63;101522.19;5040229;28;45399;-64
2021/07/19 00:11:06;;;;;;;;;0.00;0.00;;;;;28.78;92.33;101515.38;5040231;28;45588;-65
2021/07/19 00:13:32;;;;;;;;;0.00;0.00;;;;;28.78;92.08;101518.06;5040072;28;45379;-65
2021/07/19 00:15:58;;;;;;;;;0.00;0.00;;;;;28.99;91.85;101516.84;5040450;28;46134;-65
2021/07/19 00:18:23;;;;;;;;;0.00;0.00;;;;;28.73;93.13;101523.31;5040602;28;45426;-65
2021/07/19 00:20:49;;;;;;;;;0.00;0.00;;;;;28.83;93.33;101519.06;5040632;28;45372;-65
2021/07/19 00:23:14;;;;;;;;;0.00;0.00;;;;;28.57;94.59;101528.19;5040444;28;45450;-65
2021/07/19 00:25:40;;;;;;;;;0.00;0.00;;;;;28.55;95.72;101521.38;5035278;28;46614;-65
2021/07/19 00:28:05;;;;;;;;;0.00;0.00;;;;;28.49;94.46;101520.41;5040513;28;45399;-65
2021/07/19 00:30:33;;;;;;;;;0.00;0.00;;;;;28.48;95.21;101518.72;5040276;28;45473;-65
2021/07/19 00:32:58;;;;;;;;;0.00;0.00;;;;;28.65;96.23;101521.72;5042849;28;45212;-65
2021/07/19 00:35:23;;;;;;;;;0.00;0.00;;;;;28.70;93.69;101523.75;5028491;28;47462;-65
2021/07/19 00:37:49;;;;;;;;;0.00;0.00;;;;;28.49;94.30;101523.09;5046894;28;45557;-65
2021/07/19 00:40:24;;;;;;;;;0.00;0.00;;;;;28.27;94.78;101519.03;5040396;28;45466;-65
2021/07/19 00:42:50;;;;;;;;;0.00;0.00;;;;;28.21;96.35;101524.28;5045170;28;45431;-65
2021/07/19 00:45:19;;;;;;;;;0.00;0.00;;;;;28.14;98.06;101523.50;5046755;28;46322;-65
2021/07/19 00:47:46;;;;;;;;;0.00;0.00;;;;;28.10;96.71;101521.44;5030339;28;45339;-65
2021/07/19 00:50:13;;;;;;;;;0.00;0.00;;;;;28.21;96.82;101518.06;5038652;28;45316;-64
2021/07/19 00:52:39;;;;;;;;;0.00;0.00;;;;;28.00;97.24;101520.03;5046769;28;45539;-65
2021/07/19 00:55:07;;;;;;;;;0.00;0.00;;;;;27.93;97.58;101516.56;5046776;28;46349;-65
2021/07/19 00:57:34;;;;;;;;;0.00;0.00;;;;;28.01;97.08;101510.06;5046409;28;45396;-65
2021/07/19 01:00:02;;;;;;;;;0.00;0.00;;;;;27.85;98.33;101516.78;5046801;28;45353;-65
2021/07/19 01:02:30;;;;;;;;;0.00;0.00;;;;;27.76;98.23;101513.47;5046866;28;45407;-65
2021/07/19 01:04:57;;;;;;;;;0.00;0.00;;;;;27.90;98.25;101519.66;5046770;28;45501;-65
2021/07/19 01:07:27;;;;;;;;;0.00;0.00;;;;;27.98;97.09;101511.31;5046452;28;45464;-65
2021/07/19 01:09:53;;;;;;;;;0.00;0.00;;;;;27.91;97.65;101515.94;5040155;28;45304;-64
2021/07/19 01:12:19;;;;;;;;;0.00;0.00;;;;;27.70;98.55;101517.03;5047029;28;45551;-66
2021/07/19 01:14:44;;;;;;;;;24.00;9.00;;;;;27.72;98.66;101511.44;5046107;28;46279;-65
2021/07/19 01:17:09;;;;;;;;;0.00;0.00;;;;;27.65;99.49;101506.06;5043925;28;45336;-65
2021/07/19 01:19:37;;;;;;;;;0.00;0.00;;;;;27.73;100.00;101510.38;5042239;28;46762;-66
2021/07/19 01:22:29;;;;;;;;;0.00;0.00;;;;;27.58;99.72;101503.41;5046677;28;45750;-65
2021/07/19 01:25:16;;;;;;;;;0.00;0.00;;;;;27.79;99.92;101501.41;5028439;28;45660;-65
2021/07/19 01:27:54;;;;;;;;;0.00;0.00;;;;;27.58;100.00;101503.41;5044226;28;45376;-65
2021/07/19 01:30:19;;;;;;;;;0.00;0.00;;;;;27.50;100.00;101505.50;5045097;28;45335;-65
2021/07/19 01:32:46;;;;;;;;;0.00;0.00;;;;;27.50;100.00;101500.94;5046112;28;45219;-66
2021/07/19 01:35:14;;;;;;;;;0.00;0.00;;;;;27.44;100.00;101496.38;5046119;28;46753;-65
2021/07/19 01:37:42;;;;;;;;;0.00;0.00;;;;;27.43;100.00;101502.81;5040775;28;45453;-65
2021/07/19 01:40:08;;;;;;;;;0.00;0.00;;;;;27.44;100.00;101498.25;5046295;28;45396;-65
2021/07/19 01:42:36;;;;;;;;;0.00;0.00;;;;;27.42;100.00;101493.06;5046004;28;45467;-65
2021/07/19 01:45:05;;;;;;;;;0.00;0.00;;;;;27.44;100.00;101496.38;5043567;28;45390;-64
2021/07/19 01:47:31;;;;;;;;;0.00;0.00;;;;;27.41;100.00;101494.94;5042597;28;45371;-65
2021/07/19 01:49:59;;;;;;;;;0.00;0.00;;;;;27.41;100.00;101500.34;5043131;28;45419;-65
2021/07/19 01:52:25;;;;;;;;;0.00;0.00;;;;;27.40;100.00;101505.94;5042714;28;45594;-65
2021/07/19 01:54:51;;;;;;;;;0.00;0.00;;;;;27.38;100.00;101500.75;5042791;28;45378;-65
2021/07/19 01:57:17;;;;;;;;;0.00;0.00;;;;;27.46;100.00;101501.56;5040576;28;45296;-64
2021/07/19 01:59:44;;;;;;;;;0.00;0.00;;;;;27.70;100.00;101508.13;5042348;28;45182;-65
2021/07/19 02:02:10;;;;;;;;;0.00;0.00;;;;;27.40;100.00;101505.94;5024887;28;45541;-65
2021/07/19 02:04:36;;;;;;;;;0.00;0.00;;;;;27.28;100.00;101513.88;5042354;28;45502;-65
2021/07/19 02:07:03;;;;;;;;;0.00;0.00;;;;;27.20;100.00;101504.09;5042404;28;45363;-65
2021/07/19 02:09:30;;;;;;;;;0.00;0.00;;;;;27.17;100.00;101498.28;5042427;28;45379;-65
2021/07/19 02:11:59;;;;;;;;;0.00;0.00;;;;;27.23;100.00;101505.56;5043062;28;45847;-65
2021/07/19 02:14:25;;;;;;;;;0.00;0.00;;;;;27.15;100.00;101495.00;5042239;28;46206;-65
2021/07/19 02:16:53;;;;;;;;;0.00;0.00;;;;;27.14;100.00;101504.09;5042307;28;45768;-65
2021/07/19 02:19:19;;;;;;;;;0.00;0.00;;;;;27.12;100.00;101503.47;5042479;28;45399;-65
2021/07/19 02:21:45;;;;;;;;;0.00;0.00;;;;;27.12;100.00;101503.47;5042389;28;45369;-65
2021/07/19 02:24:12;;;;;;;;;0.00;0.00;;;;;27.04;100.00;101496.47;5042171;28;45352;-65
2021/07/19 02:26:37;;;;;;;;;0.00;0.00;;;;;26.94;100.00;101488.78;5042008;28;45190;-65
2021/07/19 02:29:04;;;;;;;;;0.00;0.00;;;;;26.99;100.00;101493.53;5042381;28;45438;-65
2021/07/19 02:31:31;;;;;;;;;0.00;0.00;;;;;26.96;100.00;101493.97;5041225;28;45538;-65
2021/07/19 02:33:58;;;;;;;;;0.00;0.00;;;;;26.96;100.00;101500.19;5041669;28;45410;-65
2021/07/19 02:36:24;;;;;;;;;0.00;0.00;;;;;26.98;100.00;101503.50;5042027;28;45352;-65
2021/07/19 02:38:52;;;;;;;;;0.00;0.00;;;;;26.95;100.00;101508.47;5041578;28;45317;-65
2021/07/19 02:41:20;;;;;;;;;0.00;0.00;;;;;26.93;100.00;101505.16;5042184;28;45545;-65
2021/07/19 02:43:49;;;;;;;;;0.00;0.00;;;;;26.92;100.00;101508.91;5041699;28;45529;-65
2021/07/19 02:46:15;;;;;;;;;0.00;0.00;;;;;26.91;100.00;101505.41;5041699;28;45543;-65
2021/07/19 02:48:42;;;;;;;;;0.00;0.00;;;;;26.88;100.00;101503.09;5033608;28;45354;-65
2021/07/19 02:51:10;;;;;;;;;0.00;0.00;;;;;26.84;100.00;101509.94;5041878;28;45621;-65
2021/07/19 02:53:36;;;;;;;;;0.00;0.00;;;;;26.82;100.00;101505.81;5041369;28;45551;-65
2021/07/19 02:56:04;;;;;;;;;0.00;0.00;;;;;26.76;100.00;101507.44;5040688;28;45531;-65
2021/07/19 02:58:30;;;;;;;;;0.00;0.00;;;;;26.73;100.00;101508.69;5041557;28;45351;-65
2021/07/19 03:00:58;;;;;;;;;0.00;0.00;;;;;26.73;100.00;101505.19;5041720;28;45340;-65
2021/07/19 03:03:29;;;;;;;;;0.00;0.00;;;;;26.70;100.00;101505.63;5041561;28;45306;-65
2021/07/19 03:06:09;;;;;;;;;0.00;0.00;;;;;26.67;100.00;101504.13;5041745;28;45383;-65
2021/07/19 03:08:37;;;;;;;;;0.00;0.00;;;;;26.64;100.00;101507.25;5041442;28;45401;-65
2021/07/19 03:11:10;;;;;;;;;0.00;0.00;;;;;26.63;100.00;101502.91;5041049;28;45527;-65
2021/07/19 03:13:37;;;;;;;;;0.00;0.00;;;;;26.59;100.00;101494.41;5041161;28;45357;-65
2021/07/19 03:16:05;;;;;;;;;0.00;0.00;;;;;26.58;100.00;101498.13;5041083;28;45284;-65
2021/07/19 03:18:35;;;;;;;;;0.00;0.00;;;;;26.58;100.00;101497.31;5040544;28;45421;-65
2021/07/19 03:21:02;;;;;;;;;0.00;0.00;;;;;26.57;100.00;101501.88;5040909;28;45531;-65
2021/07/19 03:23:30;;;;;;;;;0.00;0.00;;;;;26.66;100.00;101502.50;5040916;28;46474;-65
2021/07/19 03:25:58;;;;;;;;;0.00;0.00;;;;;26.55;100.00;101498.53;5041406;28;45398;-65
2021/07/19 03:28:24;;;;;;;;;0.00;0.00;;;;;26.54;100.00;101493.34;5040913;28;45485;-66
2021/07/19 03:30:51;;;;;;;;;0.00;0.00;;;;;26.50;100.00;101492.94;5041068;28;45392;-66
2021/07/19 03:33:17;;;;;;;;;0.00;0.00;;;;;26.51;100.00;101493.75;5041176;28;45440;-66
2021/07/19 03:35:43;;;;;;;;;0.00;0.00;;;;;26.55;100.00;101486.94;5041067;28;45486;-66
2021/07/19 03:38:13;;;;;;;;;0.00;0.00;;;;;26.43;100.00;101489.38;5040949;28;45387;-65
2021/07/19 03:40:39;;;;;;;;;0.00;0.00;;;;;26.47;100.00;101484.44;5041262;28;45328;-66
2021/07/19 03:43:04;;;;;;;;;0.00;0.00;;;;;26.47;100.00;101485.25;5041226;28;46376;-66
2021/07/19 03:45:30;;;;;;;;;0.00;0.00;;;;;26.46;100.00;101478.22;5041176;28;45358;-66
2021/07/19 03:47:56;;;;;;;;;0.00;0.00;;;;;26.40;100.00;101476.34;5041283;28;45334;-66
2021/07/19 03:50:22;;;;;;;;;0.00;0.00;;;;;26.47;100.00;101479.84;5041189;28;45289;-64
2021/07/19 03:52:50;;;;;;;;;0.00;0.00;;;;;26.44;100.00;101482.97;5040365;28;46362;-64
2021/07/19 03:55:17;;;;;;;;;0.00;0.00;;;;;26.38;100.00;101483.81;5040662;28;45315;-64
2021/07/19 03:57:44;;;;;;;;;0.00;0.00;;;;;26.37;100.00;101480.28;5041025;28;45349;-64
2021/07/19 04:00:12;;;;;;;;;0.00;0.00;;;;;26.38;100.00;101486.50;5041013;28;45414;-65
2021/07/19 04:02:39;;;;;;;;;0.00;0.00;;;;;26.57;100.00;101477.63;5040921;28;46555;-65
2021/07/19 04:05:08;;;;;;;;;0.00;0.00;;;;;26.33;100.00;101491.69;5040597;28;45324;-65
2021/07/19 04:07:36;;;;;;;;;0.00;0.00;;;;;26.49;100.00;101485.06;5021964;28;45446;-65
2021/07/19 04:10:05;;;;;;;;;0.00;0.00;;;;;26.31;100.00;101481.09;5040646;28;45502;-65
2021/07/19 04:12:31;;;;;;;;;0.00;0.00;;;;;26.23;100.00;101481.28;5040611;28;47316;-65
2021/07/19 04:14:57;;;;;;;;;0.00;0.00;;;;;26.15;100.00;101482.31;5040400;28;45435;-65
2021/07/19 04:17:22;;;;;;;;;0.00;0.00;;;;;26.42;100.00;101482.34;5040679;28;45353;-65
2021/07/19 04:19:48;;;;;;;;;0.00;0.00;;;;;26.55;100.00;101476.16;5040623;28;45486;-65
2021/07/19 04:22:15;;;;;;;;;0.00;0.00;;;;;26.58;100.00;101481.13;5040290;28;46177;-65
2021/07/19 04:24:41;;;;;;;;;0.00;0.00;;;;;26.12;100.00;101489.97;5039821;28;45355;-65
2021/07/19 04:27:06;;;;;;;;;0.00;0.00;;;;;26.06;100.00;101490.78;5040192;28;45478;-65
2021/07/19 04:29:32;;;;;;;;;0.00;0.00;;;;;26.00;100.00;101481.66;5040129;28;45342;-66
2021/07/19 04:31:58;;;;;;;;;0.00;0.00;;;;;26.06;100.00;101482.72;5040036;28;45452;-66
2021/07/19 04:34:28;;;;;;;;;0.00;0.00;;;;;26.06;100.00;101488.09;5039969;28;45486;-65
2021/07/19 04:36:58;;;;;;;;;0.00;0.00;;;;;26.08;100.00;101483.34;5016601;28;45358;-65
2021/07/19 04:39:23;;;;;;;;;0.00;0.00;;;;;26.07;100.00;101479.81;5040280;28;45480;-65
2021/07/19 04:41:49;;;;;;;;;0.00;0.00;;;;;26.10;100.00;101475.88;5039990;28;45329;-65
2021/07/19 04:44:14;;;;;;;;;0.00;0.00;;;;;26.17;100.00;101482.94;5020668;28;45377;-65
2021/07/19 04:46:39;;;;;;;;;0.00;0.00;;;;;26.18;100.00;101481.09;5040323;28;45443;-65
2021/07/19 04:49:05;;;;;;;;;0.00;0.00;;;;;26.28;100.00;101492.25;5040220;28;45564;-65
2021/07/19 04:51:31;;;;;;;;;0.00;0.00;;;;;26.24;100.00;101482.13;5040131;28;46204;-64
2021/07/19 04:53:59;;;;;;;;;0.00;0.00;;;;;26.40;100.00;101485.25;5039333;28;45340;-66
2021/07/19 04:56:25;;;;;;;;;0.00;0.00;;;;;26.33;100.00;101492.50;5026310;28;45443;-66
2021/07/19 04:58:52;;;;;;;;;0.00;0.00;;;;;26.84;100.00;101487.56;5037096;28;45624;-65
2021/07/19 05:01:18;;;;;;;;;0.00;0.00;;;;;26.76;100.00;101484.06;5039267;28;46323;-66
2021/07/19 05:03:50;;;;;;;;;0.00;0.00;;;;;26.92;100.00;101488.16;5039672;28;45269;-64
2021/07/19 05:06:18;;;;;;;;;0.00;0.00;;;;;26.62;100.00;101489.66;5039656;28;45453;-66
2021/07/19 05:08:46;;;;;;;;;0.00;0.00;;;;;26.64;100.00;101484.88;5039929;28;45339;-65
2021/07/19 05:11:12;;;;;;;;;0.00;0.00;;;;;26.63;100.00;101499.38;5039383;28;46557;-65
2021/07/19 05:13:39;;;;;;;;;0.00;0.00;;;;;26.99;100.00;101498.94;5039763;28;45359;-65
2021/07/19 05:16:06;;;;;;;;;0.00;0.00;;;;;27.15;100.00;101495.00;5039633;28;45275;-65
2021/07/19 05:18:32;;;;;;;;;0.00;0.00;;;;;26.96;100.00;101502.06;5039050;28;45403;-65
2021/07/19 05:20:58;;;;;;;;;0.00;0.00;;;;;26.45;100.00;101500.78;5042213;28;45598;-64
2021/07/19 05:23:25;;;;;;;;;0.00;0.00;;;;;27.05;100.00;101503.50;5042775;28;45296;-65
2021/07/19 05:25:51;;;;;;;;;0.00;0.00;;;;;27.05;100.00;101503.50;5043165;28;45306;-65
2021/07/19 05:28:17;;;;;;;;;0.00;0.00;;;;;27.12;100.00;101496.22;5042736;28;45316;-65
2021/07/19 05:30:45;;;;;;;;;0.00;0.00;;;;;27.24;100.00;101495.63;5042202;28;45379;-65
2021/07/19 05:33:10;;;;;;;;;0.00;0.00;;;;;27.23;100.00;101502.03;5042469;28;45458;-65
2021/07/19 05:35:37;;;;;;;;;0.00;0.00;;;;;26.85;100.00;101500.84;5040227;28;45318;-65
2021/07/19 05:38:03;;;;;;;;;0.00;0.00;;;;;27.39;100.00;101501.59;5042339;28;45530;-66
2021/07/19 05:40:29;;;;;;;;;0.00;0.00;;;;;27.40;100.00;101503.22;5042312;28;45461;-64
2021/07/19 05:42:54;;;;;;;;;0.00;0.00;;;;;27.42;100.00;101501.16;5042102;28;45380;-65
2021/07/19 05:45:20;;;;;;;;;0.00;0.00;;;;;27.31;100.00;101502.63;5042843;28;45328;-65
2021/07/19 05:47:46;;;;;;;;;0.00;0.00;;;;;27.42;100.00;101509.25;5024434;28;45376;-65
2021/07/19 05:50:12;;;;;;;;;0.00;0.00;;;;;27.45;100.00;101498.06;5042330;28;45619;-65
2021/07/19 05:52:37;;;;;;;;;0.00;0.00;;;;;27.52;100.00;101503.41;5041699;28;45297;-66
2021/07/19 05:55:05;;;;;;;;;0.00;0.00;;;;;26.99;100.00;101502.47;5042269;28;45296;-65
2021/07/19 05:57:30;;;;;;;;;0.00;0.00;;;;;27.51;100.00;101499.88;5041588;28;45668;-65
2021/07/19 05:59:56;;;;;;;;;0.00;0.00;;;;;27.64;100.00;101500.88;5042170;28;46352;-66
2021/07/19 06:02:23;;;;;;;;;0.00;0.00;;;;;27.58;100.00;101492.59;5042344;28;45390;-67
2021/07/19 06:04:48;;;;;;;;;0.00;0.00;;;;;27.68;100.00;101500.22;5042986;28;45390;-65
2021/07/19 06:07:13;;;;;;;;;0.00;0.00;;;;;27.50;100.00;101498.22;5041830;28;45599;-64
2021/07/19 06:09:39;;;;;;;;;0.00;0.00;;;;;27.81;100.00;101496.63;5041978;28;46481;-65
2021/07/19 06:12:04;;;;;;;;;0.00;0.00;;;;;27.89;100.00;101501.00;5042295;28;45324;-66
2021/07/19 06:14:30;;;;;;;;;0.00;0.00;;;;;27.84;100.00;101507.03;5041510;28;45412;-65
2021/07/19 06:16:55;;;;;;;;;0.00;0.00;;;;;28.21;100.00;101504.56;5041911;28;45242;-66
2021/07/19 06:19:20;;;;;;;;;0.00;0.00;;;;;28.77;100.00;101509.13;5041626;28;46457;-66
2021/07/19 06:21:45;;;;;;;;;0.00;0.00;;;;;29.05;100.00;101510.56;5041243;28;45414;-65
2021/07/19 06:24:11;;;;;;;;;0.00;0.00;;;;;29.49;98.82;101505.09;5041726;28;45321;-65
2021/07/19 06:26:38;;;;;;;;;0.00;0.00;;;;;29.98;97.75;101504.06;5041420;28;45518;-66
2021/07/19 06:29:04;;;;;;;;;0.00;0.00;;;;;30.47;95.74;101506.69;5040703;28;46492;-66
2021/07/19 06:31:29;;;;;;;;;0.00;0.00;;;;;30.93;94.55;101501.56;5040261;28;45352;-66
2021/07/19 06:33:55;;;;;;;;;0.00;0.00;;;;;31.49;91.68;101508.25;5041341;28;45601;-66
2021/07/19 06:36:20;;;;;;;;;0.75;0.00;;;;;31.70;91.33;101500.50;5041548;28;45465;-66
2021/07/19 06:38:45;;;;;;;;;0.00;0.00;;;;;31.89;88.91;101497.34;5040777;28;45529;-66
2021/07/19 06:41:12;;;;;;;;;0.00;0.00;;;;;32.61;86.42;101503.22;5041113;28;45470;-66
2021/07/19 06:43:41;;;;;;;;;0.00;0.00;;;;;32.85;85.19;101503.88;5041534;28;45394;-66
2021/07/19 06:46:07;;;;;;;;;0.00;0.00;;;;;32.80;85.47;101510.06;5029430;28;45342;-66
2021/07/19 06:48:34;;;;;;;;;0.00;0.00;;;;;33.39;83.68;101501.38;5040284;28;46278;-66
2021/07/19 06:51:00;;;;;;;;;0.00;0.00;;;;;33.62;82.14;101504.94;5038918;28;45571;-66
2021/07/19 06:53:27;;;;;;;;;0.00;0.00;;;;;33.81;81.60;101499.97;5032216;28;45457;-67
2021/07/19 06:55:53;;;;;;;;;0.00;0.00;;;;;34.06;81.03;101496.66;5040519;28;45470;-65
2021/07/19 06:58:18;;;;;;;;;0.00;0.00;;;;;34.37;79.88;101492.34;5040726;28;46332;-67
2021/07/19 07:00:43;;;;;;;;;0.00;0.00;;;;;34.59;78.68;101489.50;5029704;28;45351;-66
2021/07/19 07:03:09;;;;;;;;;0.00;0.00;;;;;34.35;79.48;101491.78;5040877;28;45377;-65
2021/07/19 07:05:34;;;;;;;;;1.00;0.00;;;;;34.67;76.97;101499.13;5040116;28;45289;-66
2021/07/19 07:07:59;;;;;;;;;0.00;0.00;;;;;34.74;76.14;101496.19;5040224;28;45774;-66
2021/07/19 07:10:25;;;;;;;;;0.00;0.00;;;;;34.67;76.02;101489.03;5040105;28;45487;-66
2021/07/19 07:12:50;;;;;;;;;0.00;0.00;;;;;34.68;75.53;101487.13;5035265;28;45289;-66
2021/07/19 07:15:15;;;;;;;;;0.00;0.00;;;;;34.36;75.38;101500.75;5040593;28;45415;-66
2021/07/19 07:17:41;;;;;;;;;0.00;0.00;;;;;34.08;76.81;101500.78;5027630;28;47269;-67
2021/07/19 07:20:11;;;;;;;;;1.00;1.00;;;;;34.29;73.50;101500.97;5037078;28;45347;-67
2021/07/19 07:22:37;;;;;;;;;0.00;0.00;;;;;34.33;74.19;101502.13;5036704;28;45728;-68
2021/07/19 07:25:03;;;;;;;;;0.00;0.00;;;;;34.15;72.31;101495.16;5040134;28;45505;-65
2021/07/19 07:27:29;;;;;;;;;0.00;0.00;;;;;34.30;73.73;101497.19;5040069;28;46305;-66
2021/07/19 07:29:54;;;;;;;;;0.00;0.00;;;;;34.32;72.38;101500.44;5022038;28;45383;-66
2021/07/19 07:32:19;;;;;;;;;0.00;0.00;;;;;34.43;73.33;101494.03;5040550;28;45363;-66
2021/07/19 07:34:45;;;;;;;;;0.00;0.00;;;;;34.71;73.57;101492.88;5040586;28;45500;-66
2021/07/19 07:37:12;;;;;;;;;0.00;0.00;;;;;34.77;72.76;101492.91;5040194;28;48068;-66
2021/07/19 07:39:39;;;;;;;;;0.00;0.00;;;;;35.13;72.39;101497.50;5040225;28;45467;-66
2021/07/19 07:42:04;;;;;;;;;0.00;0.00;;;;;35.67;68.33;101493.63;5039903;28;45242;-67
2021/07/19 07:44:30;;;;;;;;;0.00;0.00;;;;;35.92;67.91;101497.53;5040510;28;45619;-67
2021/07/19 07:46:55;;;;;;;;;0.00;0.00;;;;;36.16;67.24;101499.72;5040651;28;47176;-67
2021/07/19 07:49:21;;;;;;;;;0.00;0.00;;;;;36.10;68.38;101498.91;5039889;28;45291;-65
2021/07/19 07:51:47;;;;;;;;;0.00;0.00;;;;;36.38;66.57;101494.81;5040860;28;45366;-67
2021/07/19 07:54:12;;;;;;;;;0.00;0.00;;;;;36.65;64.11;101500.00;5040519;28;45473;-67
2021/07/19 07:56:37;;;;;;;;;0.00;0.00;;;;;36.64;59.69;101490.16;5040516;28;46311;-67
2021/07/19 07:59:03;;;;;;;;;0.00;0.00;;;;;36.98;59.31;101499.66;5037534;28;45328;-66
2021/07/19 08:01:28;;;;;;;;;0.00;0.00;;;;;37.31;57.40;101496.28;5040074;28;45317;-67
2021/07/19 08:03:54;;;;;;;;;0.00;0.00;;;;;37.66;57.43;101501.88;5040101;28;45510;-66
2021/07/19 08:06:19;;;;;;;;;0.00;0.00;;;;;37.44;53.63;101497.56;5040230;28;46845;-66
2021/07/19 08:08:45;;;;;;;;;0.00;0.00;;;;;37.46;52.68;101489.09;5039215;28;45236;-67
2021/07/19 08:11:10;;;;;;;;;0.00;0.00;;;;;37.59;48.67;101495.91;5040299;28;45395;-67
2021/07/19 08:13:36;;;;;;;;;0.00;0.00;;;;;37.72;52.07;101500.75;5040647;28;45550;-67
2021/07/19 08:16:01;;;;;;;;;0.00;0.00;;;;;38.01;49.94;101495.31;5039930;28;46688;-67
2021/07/19 08:18:27;;;;;;;;;0.00;0.00;;;;;37.88;48.44;101496.78;5040151;28;45401;-66
2021/07/19 08:20:52;;;;;;;;;0.00;0.00;;;;;38.10;49.05;101490.06;5040132;28;45583;-67
2021/07/19 08:23:18;;;;;;;;;0.00;0.00;;;;;38.69;48.88;101482.69;5039937;28;45383;-67
2021/07/19 08:25:43;;;;;;;;;0.00;0.00;;;;;39.21;48.81;101481.00;5040103;28;46276;-66
2021/07/19 08:28:09;;;;;;;;;0.00;0.00;;;;;39.29;42.44;101488.59;5040014;28;45352;-66
2021/07/19 08:30:34;;;;;;;;;0.00;0.00;;;;;39.05;44.86;101485.03;5039654;28;45399;-67
2021/07/19 08:33:00;;;;;;;;;0.00;0.00;;;;;38.88;41.36;101477.25;5040461;28;45629;-68
2021/07/19 08:35:25;;;;;;;;;0.00;0.00;;;;;38.85;43.97;101478.66;5039060;28;48219;-66
2021/07/19 08:37:56;;;;;;;;;0.00;0.00;;;;;38.74;42.82;101480.69;5039050;28;45700;-66
2021/07/19 08:40:22;;;;;;;;;0.00;0.00;;;;;38.70;41.38;101495.31;5039648;28;45605;-66
2021/07/19 08:42:48;;;;;;;;;0.00;0.00;;;;;38.74;43.04;101482.63;5039703;28;45444;-67
2021/07/19 08:45:14;;;;;;;;;0.00;0.00;;;;;39.06;40.60;101484.75;5037296;28;45573;-67
2021/07/19 08:47:42;;;;;;;;;0.00;0.00;;;;;39.28;41.48;101477.91;5038925;28;45400;-66
2021/07/19 08:50:11;;;;;;;;;0.00;0.00;;;;;39.00;40.59;101482.38;5039381;28;45316;-67
2021/07/19 08:52:37;;;;;;;;;0.00;0.00;;;;;39.18;42.15;101476.09;5038251;28;45328;-67
2021/07/19 08:55:04;;;;;;;;;0.00;0.00;;;;;39.64;41.61;101480.19;5042079;28;46923;-66
2021/07/19 08:57:30;;;;;;;;;0.00;0.00;;;;;40.12;42.50;101479.97;5042921;28;45811;-67
2021/07/19 09:00:00;;;;;;;;;0.00;0.00;;;;;40.52;38.26;101481.22;5042626;28;45522;-66
2021/07/19 09:02:25;;;;;;;;;0.00;0.00;;;;;40.95;38.05;101483.72;5042702;28;45472;-66
2021/07/19 09:04:51;;;;;;;;;0.00;0.00;;;;;41.98;35.80;101479.47;5042787;28;46339;-67
2021/07/19 09:07:17;;;;;;;;;0.00;0.00;;;;;43.68;32.67;101480.31;5042650;28;45213;-67
2021/07/19 09:09:43;;;;;;;;;0.00;0.00;;;;;45.54;32.65;101478.88;5042301;28;45344;-67
2021/07/19 09:12:09;;;;;;;;;0.50;0.00;;;;;47.27;28.85;101474.38;5043003;28;45624;-66
2021/07/19 09:14:37;;;;;;;;;0.00;0.00;;;;;48.81;27.59;101476.50;5042072;28;46499;-66
2021/07/19 09:17:03;;;;;;;;;0.00;0.00;;;;;49.91;24.83;101472.81;5042189;28;45402;-66
2021/07/19 09:19:29;;;;;;;;;0.00;0.00;;;;;50.17;24.62;101472.91;5041443;28;46662;-67
2021/07/19 09:21:56;;;;;;;;;0.00;0.00;;;;;50.21;20.42;101470.97;5042436;28;45613;-67
2021/07/19 09:24:27;;;;;;;;;1.00;1.00;;;;;48.95;22.06;101472.44;5042311;28;46471;-66
2021/07/19 09:26:53;;;;;;;;;0.00;0.00;;;;;47.86;22.06;101468.91;5023198;28;45456;-67
2021/07/19 09:29:22;;;;;;;;;0.00;0.00;;;;;47.23;24.67;101472.28;5041793;28;45545;-68
2021/07/19 09:31:59;;;;;;;;;0.00;0.00;;;;;47.05;25.28;101470.94;5042542;28;45270;-67
2021/07/19 09:34:31;;;;;;;;;0.00;0.00;;;;;47.17;23.02;101473.69;5041535;28;45291;-68
2021/07/19 09:37:07;;;;;;;;;0.00;0.00;;;;;47.14;24.08;101468.84;5041382;28;45362;-70
2021/07/19 09:39:37;;;;;;;;;0.00;0.00;;;;;47.73;23.91;101469.34;5041640;28;45371;-68
2021/07/19 09:42:15;;;;;;;;;0.00;0.00;;;;;48.75;23.75;101466.81;5042366;28;45232;-70
2021/07/19 09:44:41;;;;;;;;;0.00;0.00;;;;;50.10;22.05;101467.19;5039102;28;45855;-69
2021/07/19 09:47:09;;;;;;;;;0.00;0.00;;;;;51.61;18.54;101467.34;5039321;28;45653;-69
2021/07/19 09:49:35;;;;;;;;;0.00;0.00;;;;;52.71;18.19;101471.50;5023440;28;45383;-70
2021/07/19 09:52:05;;;;;;;;;0.00;0.00;;;;;53.46;16.38;101463.47;5041194;28;45454;-70
2021/07/19 09:54:45;;;;;;;;;0.00;0.00;;;;;54.13;17.65;101458.31;5040906;28;46008;-69
2021/07/19 09:57:11;;;;;;;;;0.00;0.00;;;;;55.69;16.83;101454.56;5041561;28;45423;-69
2021/07/19 09:59:50;;;;;;;;;0.00;0.00;;;;;56.73;16.73;101441.53;5036524;28;45414;-68
2021/07/19 10:02:36;;;;;;;;;0.00;0.00;;;;;56.92;15.28;101438.84;5041980;28;45256;-69
2021/07/19 10:05:03;;;;;;;;;0.00;0.00;;;;;57.02;15.16;101444.78;5023039;28;47820;-70
2021/07/19 10:07:29;;;;;;;;;0.00;0.00;;;;;56.69;16.28;101439.53;5041449;28;45537;-72
2021/07/19 10:09:56;;;;;;;;;0.00;0.00;;;;;56.56;15.75;101437.66;5023763;28;45315;-68
2021/07/19 10:12:22;;;;;;;;;0.00;0.00;;;;;55.95;15.58;101450.34;5041687;28;45366;-71
2021/07/19 10:14:48;;;;;;;;;0.00;0.00;;;;;55.14;17.56;101444.81;5022694;28;46904;-75
2021/07/19 10:17:15;;;;;;;;;0.00;0.00;;;;;54.66;17.60;101443.38;5031662;28;46053;-75
2021/07/19 10:19:41;;;;;;;;;0.00;0.00;;;;;54.31;17.39;101441.44;5035688;28;45525;-68
2021/07/19 10:22:10;;;;;;;;;0.00;0.00;;;;;54.02;17.46;101438.63;5041276;28;45519;-68
2021/07/19 10:24:39;;;;;;;;;0.00;0.00;;;;;53.79;16.90;101443.88;5041896;28;46566;-68
2021/07/19 10:27:05;;;;;;;;;0.00;0.00;;;;;53.61;17.27;101441.81;5042285;28;45284;-68
2021/07/19 10:29:31;;;;;;;;;0.00;0.00;;;;;53.77;18.09;101440.63;5041746;28;45323;-69
2021/07/19 10:31:56;;;;;;;;;0.00;0.00;;;;;53.70;15.92;101439.44;5042617;28;45378;-68
2021/07/19 10:34:22;;;;;;;;;0.00;0.00;;;;;53.67;17.99;101445.81;5023242;28;48272;-68
2021/07/19 10:36:47;;;;;;;;;0.00;0.00;;;;;54.08;16.59;101442.63;5023383;28;45281;-69
2021/07/19 10:39:16;;;;;;;;;0.00;0.00;;;;;54.73;16.16;101445.34;5041203;28;45328;-68
2021/07/19 10:41:41;;;;;;;;;2.75;2.75;;;;;54.47;13.93;101441.81;5041956;28;45316;-69
2021/07/19 10:44:09;;;;;;;;;0.00;0.00;;;;;54.20;15.03;101438.66;5041686;28;45388;-69
2021/07/19 10:46:36;;;;;;;;;0.00;0.00;;;;;54.08;15.17;101437.03;5024192;28;45355;-69
2021/07/19 10:49:04;;;;;;;;;0.00;0.00;;;;;54.39;15.32;101429.00;5023755;28;45391;-70
2021/07/19 10:51:38;;;;;;;;;0.00;0.00;;;;;55.02;14.69;101432.00;5024024;28;45492;-68
2021/07/19 10:54:23;;;;;;;;;0.00;0.00;;;;;55.10;14.07;101429.97;5023351;28;48062;-68
2021/07/19 10:56:53;;;;;;;;;0.25;0.00;;;;;54.44;14.74;101428.59;5024181;28;45284;-69
2021/07/19 10:59:30;;;;;;;;;0.00;0.00;;;;;52.99;16.10;101426.00;5041804;28;45268;-69
2021/07/19 11:01:57;;;;;;;;;0.00;0.00;;;;;52.15;15.56;101422.28;5041961;28;45442;-69
2021/07/19 11:04:24;;;;;;;;;0.00;0.00;;;;;51.06;17.91;101419.50;5023665;28;47231;-69
2021/07/19 11:06:57;;;;;;;;;0.00;0.00;;;;;50.11;17.82;101421.31;5041629;28;45407;-69
2021/07/19 11:09:36;;;;;;;;;0.00;0.00;;;;;48.80;19.20;101404.41;5041715;28;45500;-69
2021/07/19 11:12:16;;;;;;;;;0.00;0.00;;;;;48.50;18.90;101412.47;5024084;28;45338;-70
2021/07/19 11:14:47;;;;;;;;;0.00;0.00;;;;;47.96;20.31;101411.94;5041493;28;45446;-70
2021/07/19 11:17:15;;;;;;;;;0.00;0.00;;;;;48.09;19.99;101421.00;5040215;28;45381;-69
2021/07/19 11:19:41;;;;;;;;;0.00;0.00;;;;;48.25;18.33;101421.00;5023238;28;45313;-70
2021/07/19 11:22:12;;;;;;;;;0.00;0.00;;;;;48.97;17.61;101414.28;5041693;28;45260;-72